createdAt,value
2023-03-24T00:01:23.686Z,1.87
2023-03-24T00:03:52.536Z,1.67
2023-03-24T00:06:22.805Z,1.60
2023-03-24T00:08:53.246Z,1.67
2023-03-24T00:11:21.668Z,1.67
2023-03-24T00:13:50.570Z,2.50
2023-03-24T00:16:19.603Z,1.60
2023-03-24T00:18:50.429Z,2.13
2023-03-24T00:21:18.463Z,3.17
2023-03-24T00:23:47.823Z,3.10
2023-03-24T00:26:17.561Z,1.40
2023-03-24T00:28:46.409Z,1.30
2023-03-24T00:31:15.824Z,2.00
2023-03-24T00:33:44.294Z,1.33
2023-03-24T00:36:13.005Z,1.73
2023-03-24T00:38:41.968Z,1.90
2023-03-24T00:41:10.787Z,1.70
2023-03-24T00:43:40.332Z,1.30
2023-03-24T00:46:11.090Z,1.47
2023-03-24T00:48:42.049Z,1.17
2023-03-24T00:51:11.048Z,1.50
2023-03-24T00:53:44.009Z,1.97
2023-03-24T00:56:15.714Z,1.40
2023-03-24T00:58:48.382Z,3.13
2023-03-24T01:01:16.756Z,1.63
2023-03-24T01:03:48.369Z,5.47
2023-03-24T01:06:16.540Z,2.80
2023-03-24T01:08:45.049Z,1.77
2023-03-24T01:11:13.963Z,1.43
2023-03-24T01:13:42.140Z,1.73
2023-03-24T01:16:11.982Z,1.57
2023-03-24T01:18:40.807Z,1.70
2023-03-24T01:21:09.389Z,1.23
2023-03-24T01:23:37.452Z,2.63
2023-03-24T01:26:07.593Z,1.90
2023-03-24T01:28:40.698Z,1.23
2023-03-24T01:31:09.910Z,1.50
2023-03-24T01:33:39.658Z,1.33
2023-03-24T01:36:08.487Z,1.43
2023-03-24T01:38:36.618Z,1.93
2023-03-24T01:41:04.809Z,1.33
2023-03-24T01:43:33.649Z,1.10
2023-03-24T01:46:18.721Z,1.30
2023-03-24T01:48:51.907Z,1.63
2023-03-24T01:51:22.182Z,1.53
2023-03-24T01:53:55.698Z,2.07
2023-03-24T01:56:23.777Z,2.60
2023-03-24T01:58:53.172Z,1.43
2023-03-24T02:01:22.393Z,1.33
2023-03-24T02:03:52.996Z,1.43
2023-03-24T02:06:21.257Z,1.30
2023-03-24T02:08:52.037Z,1.63
2023-03-24T02:11:20.202Z,2.87
2023-03-24T02:13:48.482Z,1.20
2023-03-24T02:16:27.575Z,1.20
2023-03-24T02:19:13.193Z,1.07
2023-03-24T02:22:27.153Z,1.27
2023-03-24T02:25:16.427Z,1.43
2023-03-24T02:28:12.085Z,2.70
2023-03-24T02:31:13.897Z,1.37
2023-03-24T02:34:16.017Z,2.43
2023-03-24T02:37:13.898Z,2.20
2023-03-24T02:40:13.197Z,1.80
2023-03-24T02:42:45.807Z,2.23
2023-03-24T02:45:20.887Z,1.20
2023-03-24T02:47:56.086Z,1.43
2023-03-24T02:50:27.029Z,1.63
2023-03-24T02:53:00.595Z,1.70
2023-03-24T02:55:32.731Z,2.60
2023-03-24T02:58:02.735Z,1.37
2023-03-24T03:00:32.768Z,1.37
2023-03-24T03:03:03.536Z,2.00
2023-03-24T03:05:34.331Z,1.30
2023-03-24T03:08:03.461Z,1.30
2023-03-24T03:10:33.645Z,1.30
2023-03-24T03:13:03.223Z,1.10
2023-03-24T03:15:37.040Z,1.20
2023-03-24T03:18:08.586Z,1.80
2023-03-24T03:20:39.439Z,1.53
2023-03-24T03:23:13.447Z,1.40
2023-03-24T03:25:46.471Z,1.60
2023-03-24T03:28:18.034Z,1.23
2023-03-24T03:30:47.482Z,1.00
2023-03-24T03:33:18.185Z,4.70
2023-03-24T03:35:48.282Z,1.47
2023-03-24T03:38:19.503Z,1.83
2023-03-24T03:40:51.806Z,1.30
2023-03-24T03:43:19.915Z,2.03
2023-03-24T03:45:48.106Z,1.50
2023-03-24T03:48:16.740Z,7.80
2023-03-24T03:50:44.829Z,1.73
2023-03-24T03:53:12.966Z,1.50
2023-03-24T03:55:41.592Z,2.33
2023-03-24T03:58:11.044Z,1.53
2023-03-24T04:00:39.159Z,1.97
2023-03-24T04:03:19.388Z,1.40
2023-03-24T04:05:54.042Z,1.90
2023-03-24T04:08:26.912Z,2.80
2023-03-24T04:11:20.019Z,1.67
2023-03-24T04:13:54.321Z,1.43
2023-03-24T04:16:23.535Z,1.60
2023-03-24T04:19:00.053Z,1.63
2023-03-24T04:21:55.167Z,2.30
2023-03-24T04:24:27.565Z,1.90
2023-03-24T04:27:00.868Z,1.60
2023-03-24T04:29:34.739Z,1.60
2023-03-24T04:32:03.491Z,1.33
2023-03-24T04:34:33.033Z,1.80
2023-03-24T04:37:04.324Z,1.53
2023-03-24T04:39:34.204Z,2.03
2023-03-24T04:42:04.368Z,2.80
2023-03-24T04:44:34.056Z,1.80
2023-03-24T04:47:03.665Z,2.60
2023-03-24T04:49:32.661Z,2.60
2023-03-24T04:52:05.095Z,1.73
2023-03-24T04:54:33.165Z,3.20
2023-03-24T04:57:02.459Z,1.83
2023-03-24T04:59:36.637Z,2.73
2023-03-24T05:02:05.700Z,2.47
2023-03-24T05:04:36.992Z,3.17
2023-03-24T05:07:05.376Z,3.73
2023-03-24T05:09:34.011Z,1.80
2023-03-24T05:12:05.210Z,2.40
2023-03-24T05:14:33.256Z,1.80
2023-03-24T05:17:02.701Z,1.83
2023-03-24T05:19:31.012Z,2.23
2023-03-24T05:21:59.087Z,2.17
2023-03-24T05:24:27.547Z,1.60
2023-03-24T05:26:55.599Z,1.90
2023-03-24T05:29:23.654Z,3.13
2023-03-24T05:31:51.726Z,2.83
2023-03-24T05:34:22.273Z,2.03
2023-03-24T05:36:50.352Z,2.20
2023-03-24T05:39:18.645Z,2.20
2023-03-24T05:41:46.682Z,2.13
2023-03-24T05:44:14.755Z,5.13
2023-03-24T05:46:42.841Z,2.30
2023-03-24T05:49:10.959Z,2.00
2023-03-24T05:51:40.414Z,2.00
2023-03-24T05:54:08.658Z,2.00
2023-03-24T05:56:36.784Z,1.90
2023-03-24T05:59:05.156Z,2.37
2023-03-24T06:01:35.195Z,2.00
2023-03-24T06:04:03.317Z,2.20
2023-03-24T06:06:31.531Z,3.20
2023-03-24T06:09:02.529Z,2.00
2023-03-24T06:11:30.656Z,2.37
2023-03-24T06:14:00.449Z,2.93
2023-03-24T06:16:28.620Z,2.77
2023-03-24T06:18:59.082Z,2.03
2023-03-24T06:21:32.446Z,3.00
2023-03-24T06:24:04.377Z,2.23
2023-03-24T06:26:32.554Z,2.00
2023-03-24T06:29:05.098Z,2.10
2023-03-24T06:31:34.572Z,3.60
2023-03-24T06:34:02.942Z,7.27
2023-03-24T06:36:31.040Z,1.90
2023-03-24T06:38:59.108Z,3.63
2023-03-24T06:41:28.654Z,2.13
2023-03-24T06:43:57.112Z,1.70
2023-03-24T06:46:29.117Z,2.23
2023-03-24T06:48:57.239Z,1.70
2023-03-24T06:51:25.286Z,3.00
2023-03-24T06:53:53.362Z,2.40
2023-03-24T06:56:21.622Z,4.20
2023-03-24T06:58:51.645Z,2.67
2023-03-24T07:01:20.338Z,3.60
2023-03-24T07:03:48.704Z,3.47
2023-03-24T07:06:16.874Z,2.13
2023-03-24T07:08:44.947Z,3.17
2023-03-24T07:11:13.021Z,1.93
2023-03-24T07:13:41.124Z,2.27
2023-03-24T07:16:10.987Z,1.70
2023-03-24T07:18:39.195Z,3.70
2023-03-24T07:21:07.713Z,2.40
2023-03-24T07:23:35.830Z,2.73
2023-03-24T07:26:03.880Z,2.63
2023-03-24T07:28:31.929Z,5.70
2023-03-24T07:31:03.455Z,2.57
2023-03-24T07:33:33.017Z,2.60
2023-03-24T07:36:01.087Z,2.10
2023-03-24T07:38:29.161Z,2.57
2023-03-24T07:40:58.410Z,3.10
2023-03-24T07:43:26.487Z,4.00
2023-03-24T07:45:54.563Z,2.80
2023-03-24T07:48:22.689Z,4.93
2023-03-24T07:50:53.356Z,2.00
2023-03-24T07:53:21.480Z,2.57
2023-03-24T07:55:49.742Z,4.77
2023-03-24T07:58:18.054Z,5.00
2023-03-24T08:00:46.303Z,3.83
2023-03-24T08:03:15.611Z,2.00
2023-03-24T08:05:44.473Z,4.57
2023-03-24T08:08:13.935Z,5.70
2023-03-24T08:10:42.756Z,1.83
2023-03-24T08:13:11.126Z,3.90
2023-03-24T08:15:39.194Z,1.67
2023-03-24T08:18:07.578Z,2.80
2023-03-24T08:20:35.697Z,2.40
2023-03-24T08:23:04.941Z,4.70
2023-03-24T08:25:35.116Z,3.80
2023-03-24T08:28:03.199Z,2.97
2023-03-24T08:30:31.297Z,4.53
2023-03-24T08:33:00.992Z,3.20
2023-03-24T08:35:31.477Z,3.53
2023-03-24T08:38:01.137Z,6.97
2023-03-24T08:40:29.839Z,3.23
2023-03-24T08:43:00.283Z,3.73
2023-03-24T08:45:30.571Z,3.83
2023-03-24T08:47:59.549Z,4.93
2023-03-24T08:50:28.966Z,3.37
2023-03-24T08:52:57.134Z,3.00
2023-03-24T08:55:27.679Z,3.73
2023-03-24T08:57:56.079Z,7.70
2023-03-24T09:00:25.753Z,1.50
2023-03-24T09:02:55.004Z,3.13
2023-03-24T09:05:36.506Z,4.83
2023-03-24T09:08:09.490Z,4.13
2023-03-24T09:10:37.560Z,6.63
2023-03-24T09:13:05.681Z,2.20
2023-03-24T09:15:35.723Z,4.40
2023-03-24T09:18:03.873Z,2.10
2023-03-24T09:20:32.059Z,2.73
2023-03-24T09:23:00.115Z,3.30
2023-03-24T09:25:28.281Z,3.20
2023-03-24T09:27:57.023Z,2.50
2023-03-24T09:30:25.103Z,4.53
2023-03-24T09:32:54.686Z,8.53
2023-03-24T09:35:23.406Z,5.37
2023-03-24T09:37:51.488Z,4.67
2023-03-24T09:40:24.710Z,3.53
2023-03-24T09:42:55.705Z,3.27
2023-03-24T09:45:24.363Z,6.03
2023-03-24T09:47:57.782Z,5.70
2023-03-24T09:50:26.583Z,4.73
2023-03-24T09:52:56.056Z,6.80
2023-03-24T09:55:25.706Z,6.60
2023-03-24T09:57:54.389Z,4.80
2023-03-24T10:00:23.899Z,6.00
2023-03-24T10:02:54.241Z,6.30
2023-03-24T10:05:28.049Z,6.13
2023-03-24T10:07:58.039Z,2.83
2023-03-24T10:10:31.033Z,6.30
2023-03-24T10:13:01.593Z,3.10
2023-03-24T10:15:37.791Z,7.83
2023-03-24T10:18:16.000Z,10.37
2023-03-24T10:20:51.092Z,4.50
2023-03-24T10:23:24.078Z,3.53
2023-03-24T10:25:53.744Z,4.33
2023-03-24T10:28:22.428Z,5.43
2023-03-24T10:30:51.638Z,6.33
2023-03-24T10:33:23.284Z,3.17
2023-03-24T10:35:58.203Z,5.20
2023-03-24T10:38:29.360Z,7.57
2023-03-24T10:40:57.521Z,3.50
2023-03-24T10:43:25.648Z,6.80
2023-03-24T10:45:55.453Z,5.33
2023-03-24T10:48:37.057Z,4.50
2023-03-24T10:51:07.207Z,5.13
2023-03-24T10:53:35.328Z,4.93
2023-03-24T10:56:03.597Z,5.27
2023-03-24T10:58:37.625Z,5.80
2023-03-24T11:01:21.467Z,5.03
2023-03-24T11:03:49.748Z,3.40
2023-03-24T11:06:20.741Z,6.30
2023-03-24T11:09:18.973Z,4.90
2023-03-24T11:11:47.308Z,5.30
2023-03-24T11:14:23.512Z,9.53
2023-03-24T11:16:51.685Z,6.10
2023-03-24T11:19:23.603Z,6.03
2023-03-24T11:21:53.602Z,7.70
2023-03-24T11:24:21.845Z,5.10
2023-03-24T11:26:53.870Z,5.53
2023-03-24T11:29:24.298Z,12.67
2023-03-24T11:31:52.951Z,6.60
2023-03-24T11:34:24.364Z,4.93
2023-03-24T11:36:54.594Z,4.03
2023-03-24T11:39:24.209Z,6.80
2023-03-24T11:42:05.516Z,6.10
2023-03-24T11:44:42.980Z,4.60
2023-03-24T11:47:12.990Z,9.40
2023-03-24T11:49:43.312Z,6.10
2023-03-24T11:52:16.243Z,5.00
2023-03-24T11:54:44.417Z,4.30
2023-03-24T11:57:19.629Z,3.90
2023-03-24T11:59:58.130Z,4.50
2023-03-24T12:02:29.310Z,4.93
2023-03-24T12:05:21.758Z,5.27
2023-03-24T12:08:21.307Z,3.77
2023-03-24T12:10:55.476Z,5.60
2023-03-24T12:13:32.707Z,5.10
2023-03-24T12:16:06.342Z,4.80
2023-03-24T12:18:48.965Z,2.10
2023-03-24T12:21:22.547Z,3.20
2023-03-24T12:23:57.963Z,3.67
2023-03-24T12:26:29.714Z,5.83
2023-03-24T12:29:16.280Z,6.27
2023-03-24T12:31:56.238Z,6.23
2023-03-24T12:34:56.680Z,3.67
2023-03-24T12:37:27.826Z,3.03
2023-03-24T12:40:10.262Z,4.20
2023-03-24T12:42:41.828Z,3.93
2023-03-24T12:45:17.578Z,4.23
2023-03-24T12:48:09.434Z,4.03
2023-03-24T12:50:42.900Z,2.50
2023-03-24T12:53:41.834Z,3.10
2023-03-24T12:56:14.257Z,3.30
2023-03-24T12:58:44.042Z,8.23
2023-03-24T13:01:15.032Z,4.67
2023-03-24T13:03:45.439Z,4.60
2023-03-24T13:06:17.856Z,5.33
2023-03-24T13:08:49.392Z,1.83
2023-03-24T13:11:31.868Z,3.80
2023-03-24T13:14:01.555Z,4.33
2023-03-24T13:16:30.725Z,4.33
2023-03-24T13:18:59.945Z,9.63
2023-03-24T13:21:29.779Z,2.63
2023-03-24T13:23:58.923Z,2.20
2023-03-24T13:26:35.511Z,6.73
2023-03-24T13:29:18.096Z,3.30
2023-03-24T13:31:47.324Z,3.43
2023-03-24T13:34:26.526Z,3.97
2023-03-24T13:36:56.991Z,3.27
2023-03-24T13:39:25.573Z,3.00
2023-03-24T13:41:56.006Z,4.73
2023-03-24T13:44:25.076Z,4.90
2023-03-24T13:47:06.675Z,10.27
2023-03-24T13:49:35.714Z,3.60
2023-03-24T13:52:06.460Z,1.33
2023-03-24T13:54:37.436Z,5.00
2023-03-24T13:57:17.274Z,3.57
2023-03-24T13:59:59.778Z,2.57
2023-03-24T14:02:50.482Z,5.10
2023-03-24T14:05:43.344Z,1.70
2023-03-24T14:08:13.883Z,3.57
2023-03-24T14:10:51.650Z,5.20
2023-03-24T14:13:25.321Z,3.30
2023-03-24T14:15:53.805Z,4.90
2023-03-24T14:18:41.091Z,4.60
2023-03-24T14:21:09.811Z,2.83
2023-03-24T14:23:42.368Z,4.33
2023-03-24T14:26:14.463Z,1.93
2023-03-24T14:28:43.910Z,3.80
2023-03-24T14:31:29.220Z,4.23
2023-03-24T14:34:07.435Z,2.43
2023-03-24T14:36:39.715Z,4.70
2023-03-24T14:39:13.257Z,2.33
2023-03-24T14:41:42.050Z,2.30
2023-03-24T14:44:11.570Z,3.67
2023-03-24T14:46:44.539Z,3.57
2023-03-24T14:49:25.783Z,3.83
2023-03-24T14:51:59.586Z,2.70
2023-03-24T14:54:35.433Z,3.33
2023-03-24T14:57:03.556Z,2.33
2023-03-24T14:59:39.797Z,6.07
2023-03-24T15:02:17.762Z,3.20
2023-03-24T15:05:22.463Z,2.33
2023-03-24T15:08:02.624Z,1.77
2023-03-24T15:10:34.295Z,6.57
2023-03-24T15:13:02.345Z,3.93
2023-03-24T15:15:31.872Z,3.80
2023-03-24T15:17:59.962Z,3.30
2023-03-24T15:20:29.254Z,3.60
2023-03-24T15:23:06.638Z,3.07
2023-03-24T15:25:34.710Z,2.77
2023-03-24T15:28:02.781Z,4.00
2023-03-24T15:30:32.248Z,3.03
2023-03-24T15:33:00.808Z,8.80
2023-03-24T15:35:28.951Z,2.90
2023-03-24T15:37:59.577Z,4.17
2023-03-24T15:40:40.650Z,3.50
2023-03-24T15:43:16.356Z,4.90
2023-03-24T15:45:51.019Z,3.97
2023-03-24T15:48:22.682Z,4.17
2023-03-24T15:50:58.896Z,4.53
2023-03-24T15:53:28.535Z,3.43
2023-03-24T15:56:06.434Z,2.07
2023-03-24T15:58:46.237Z,1.70
2023-03-24T16:01:17.322Z,3.97
2023-03-24T16:03:48.440Z,3.53
2023-03-24T16:06:16.948Z,3.90
2023-03-24T16:08:46.046Z,1.37
2023-03-24T16:11:14.732Z,3.13
2023-03-24T16:13:43.449Z,1.40
2023-03-24T16:16:24.214Z,3.90
2023-03-24T16:18:52.349Z,3.50
2023-03-24T16:21:21.922Z,7.20
2023-03-24T16:23:50.437Z,3.93
2023-03-24T16:26:19.105Z,2.40
2023-03-24T16:28:47.962Z,3.93
2023-03-24T16:31:21.854Z,3.57
2023-03-24T16:33:51.527Z,2.07
2023-03-24T16:36:22.162Z,1.30
2023-03-24T16:38:50.392Z,1.80
2023-03-24T16:41:18.442Z,2.00
2023-03-24T16:43:46.637Z,5.30
2023-03-24T16:46:16.232Z,3.00
2023-03-24T16:48:44.591Z,2.70
2023-03-24T16:51:15.928Z,2.30
2023-03-24T16:53:44.329Z,2.00
2023-03-24T16:56:14.191Z,3.30
2023-03-24T16:58:42.493Z,4.43
2023-03-24T17:01:17.650Z,1.43
2023-03-24T17:03:49.900Z,1.90
2023-03-24T17:06:19.526Z,3.97
2023-03-24T17:08:47.627Z,5.37
2023-03-24T17:11:17.735Z,3.20
2023-03-24T17:13:45.838Z,5.77
2023-03-24T17:16:14.093Z,5.73
2023-03-24T17:18:42.187Z,5.17
2023-03-24T17:21:12.863Z,4.80
2023-03-24T17:23:42.269Z,6.13
2023-03-24T17:26:10.390Z,5.43
2023-03-24T17:28:38.726Z,5.60
2023-03-24T17:31:23.732Z,5.80
2023-03-24T17:33:51.819Z,6.57
2023-03-24T17:36:23.645Z,6.63
2023-03-24T17:38:53.087Z,6.50
2023-03-24T17:41:23.763Z,6.43
2023-03-24T17:44:23.229Z,6.17
2023-03-24T17:46:51.452Z,7.13
2023-03-24T17:49:19.569Z,7.27
2023-03-24T17:51:47.646Z,8.80
2023-03-24T17:54:19.260Z,8.20
2023-03-24T17:56:47.715Z,7.23
2023-03-24T17:59:16.231Z,8.03
2023-03-24T18:01:44.286Z,8.57
2023-03-24T18:04:12.421Z,8.20
2023-03-24T18:06:42.006Z,7.30
2023-03-24T18:09:11.686Z,28.70
2023-03-24T18:11:41.116Z,40.93
2023-03-24T18:14:09.337Z,38.70
2023-03-24T18:16:41.695Z,23.40
2023-03-24T18:19:09.716Z,25.30
2023-03-24T18:21:41.681Z,23.93
2023-03-24T18:24:09.882Z,20.13
2023-03-24T18:26:37.972Z,20.20
2023-03-24T18:29:07.546Z,14.07
2023-03-24T18:31:35.674Z,20.77
2023-03-24T18:34:04.179Z,15.00
2023-03-24T18:36:32.321Z,16.50
2023-03-24T18:39:00.885Z,17.80
2023-03-24T18:41:30.032Z,11.87
2023-03-24T18:43:58.998Z,12.93
2023-03-24T18:46:28.515Z,14.90
2023-03-24T18:48:56.678Z,13.10
2023-03-24T18:51:25.578Z,12.63
2023-03-24T18:53:53.629Z,9.40
2023-03-24T18:56:22.289Z,10.60
2023-03-24T18:58:51.406Z,10.83
2023-03-24T19:01:22.554Z,12.93
2023-03-24T19:03:52.487Z,11.83
2023-03-24T19:06:20.594Z,10.50
2023-03-24T19:08:51.785Z,8.57
2023-03-24T19:11:20.091Z,11.20
2023-03-24T19:13:50.462Z,10.90
2023-03-24T19:16:18.832Z,8.40
2023-03-24T19:18:48.539Z,8.83
2023-03-24T19:21:18.258Z,7.77
2023-03-24T19:23:46.781Z,7.30
2023-03-24T19:26:16.328Z,8.77
2023-03-24T19:28:44.520Z,8.10
2023-03-24T19:31:15.191Z,7.60
2023-03-24T19:33:43.406Z,7.00
2023-03-24T19:36:11.725Z,6.33
2023-03-24T19:38:41.223Z,7.53
2023-03-24T19:41:12.568Z,12.73
2023-03-24T19:43:40.810Z,4.80
2023-03-24T19:46:08.880Z,5.60
2023-03-24T19:48:36.986Z,5.30
2023-03-24T19:51:05.371Z,8.27
2023-03-24T19:53:33.479Z,4.73
2023-03-24T19:56:04.117Z,4.70
2023-03-24T19:58:32.215Z,4.77
2023-03-24T20:01:00.260Z,4.80
2023-03-24T20:03:28.946Z,9.77
2023-03-24T20:06:05.089Z,4.40
2023-03-24T20:08:33.188Z,6.40
2023-03-24T20:11:03.696Z,3.63
2023-03-24T20:13:31.734Z,6.90
2023-03-24T20:15:59.825Z,6.43
2023-03-24T20:18:27.927Z,5.57
2023-03-24T20:21:01.352Z,4.00
2023-03-24T20:23:29.396Z,4.77
2023-03-24T20:26:00.633Z,5.20
2023-03-24T20:28:30.049Z,3.80
2023-03-24T20:31:01.345Z,5.07
2023-03-24T20:33:29.711Z,3.40
2023-03-24T20:35:57.907Z,4.30
2023-03-24T20:38:26.047Z,3.20
2023-03-24T20:41:03.489Z,4.00
2023-03-24T20:43:35.652Z,3.50
2023-03-24T20:46:03.911Z,3.20
2023-03-24T20:48:32.021Z,4.33
2023-03-24T20:51:00.169Z,2.80
2023-03-24T20:53:28.243Z,3.03
2023-03-24T20:55:59.855Z,3.67
2023-03-24T20:58:28.548Z,6.27
2023-03-24T21:00:58.277Z,3.57
2023-03-24T21:03:26.448Z,3.90
2023-03-24T21:05:54.517Z,4.00
2023-03-24T21:08:22.587Z,2.90
2023-03-24T21:10:50.657Z,4.10
2023-03-24T21:13:21.645Z,3.23
2023-03-24T21:15:50.009Z,3.03
2023-03-24T21:18:19.552Z,3.07
2023-03-24T21:20:55.210Z,5.10
2023-03-24T21:23:23.266Z,2.60
2023-03-24T21:25:51.719Z,4.10
2023-03-24T21:28:19.949Z,3.23
2023-03-24T21:30:48.037Z,3.40
2023-03-24T21:33:16.706Z,5.00
2023-03-24T21:35:46.152Z,4.43
2023-03-24T21:38:51.801Z,4.40
2023-03-24T21:41:20.284Z,3.00
2023-03-24T21:43:51.287Z,3.33
2023-03-24T21:46:21.702Z,2.77
2023-03-24T21:48:51.813Z,4.03
2023-03-24T21:51:24.065Z,2.70
2023-03-24T21:53:52.545Z,2.23
2023-03-24T21:56:20.607Z,2.80
2023-03-24T21:58:48.656Z,2.10
2023-03-24T22:01:16.762Z,1.87
2023-03-24T22:03:46.506Z,3.00
2023-03-24T22:06:14.694Z,5.10
2023-03-24T22:08:44.683Z,3.33
2023-03-24T22:11:15.329Z,2.90
2023-03-24T22:13:43.415Z,3.97
2023-03-24T22:16:11.511Z,1.33
2023-03-24T22:18:39.572Z,4.77
2023-03-24T22:21:12.527Z,2.10
2023-03-24T22:23:42.809Z,3.03
2023-03-24T22:26:13.360Z,4.07
2023-03-24T22:28:42.254Z,3.97
2023-03-24T22:31:11.239Z,1.93
2023-03-24T22:33:39.335Z,2.67
2023-03-24T22:36:11.324Z,1.40
2023-03-24T22:38:39.451Z,4.30
2023-03-24T22:41:09.441Z,1.77
2023-03-24T22:43:39.558Z,2.90
2023-03-24T22:46:08.104Z,2.30
2023-03-24T22:48:36.254Z,1.30
2023-03-24T22:51:04.692Z,1.97
2023-03-24T22:53:32.741Z,3.40
2023-03-24T22:56:00.891Z,1.67
2023-03-24T22:58:29.050Z,1.63
2023-03-24T23:00:58.557Z,1.47
2023-03-24T23:03:26.679Z,2.77
2023-03-24T23:05:55.205Z,3.03
2023-03-24T23:08:24.728Z,1.17
2023-03-24T23:10:53.955Z,1.47
2023-03-24T23:13:22.039Z,2.93
2023-03-24T23:15:50.497Z,1.63
2023-03-24T23:18:20.410Z,1.70
2023-03-24T23:20:49.125Z,1.20
2023-03-24T23:23:17.723Z,1.10
2023-03-24T23:25:46.176Z,2.10
2023-03-24T23:28:14.263Z,1.23
2023-03-24T23:30:42.415Z,1.60
2023-03-24T23:33:15.007Z,2.40
2023-03-24T23:35:44.627Z,0.90
2023-03-24T23:38:12.765Z,2.60
2023-03-24T23:40:40.978Z,1.90
2023-03-24T23:43:09.034Z,1.30
2023-03-24T23:45:37.162Z,1.90
2023-03-24T23:48:05.749Z,1.83
2023-03-24T23:50:34.057Z,1.37
2023-03-24T23:53:03.483Z,1.13
2023-03-24T23:55:31.922Z,2.80
2023-03-24T23:57:59.976Z,1.57
